Main page
METAR-TAF:

METAR-TAF

Airports :

Kerry Airport

Killarney, Ireland

latitude: 52-10-51N, longitude: 9-31-26W, elevation: 34 m

Current weather observation

The report was made 39 minutes ago, at 18:00 UTC
Wind 5 kt from the West, varying between West/Southwest and Northwest
Temperature 14°C
Humidity 82%
Pressure 1016 hPa
Visibility 10 km or more
Broken clouds at a height of 2100 ft

METAR: EIKY 211800Z 28005KT 240V320 9999 BKN021 14/11 Q1016

Time: 19:39 (18:39 UTC)

Forecast

The report was made 1 hour and 39 minutes ago, at 17:00 UTC
Forecast valid from 21 at 18 UTC to 22 at 03 UTC
Wind 10 kt from the West
Visibility 10 km or more
Broken clouds at a height of 2000 ft
Probability 30% :
Temporary
from 21 at 20 UTC to 22 at 03 UTC
Broken clouds at a height of 1200 ft
Becoming
from 21 at 21 UTC to 21 at 23 UTC
Wind 6 kt from the South

TAF: EIKY 211700Z 2118/2203 27010KT 9999 BKN020 PROB30 TEMPO 2120/2203 BKN012 BECMG 2121/2123 19006KT

Weather observations and forecasts of more than 4000 airports (METAR and TAF reports).

The available stations are represented by yellow and red dots on the map.

Hover mouse over dot to see the name of the station.

Then click to see weather observations and forecasts.

To change the map : click on the green buttons with a black cross to zoom in, on the green button with a dash to zoom out, or on the green arrows for adjacent maps.


METAR-TAF: